createdAt,value
2022-10-09T00:01:43.783Z,80.57
2022-10-09T00:11:51.845Z,80.15
2022-10-09T00:21:58.119Z,79.96
2022-10-09T00:32:03.928Z,79.79
2022-10-09T00:42:09.642Z,80.39
2022-10-09T00:52:16.000Z,80.57
2022-10-09T01:02:23.475Z,79.72
2022-10-09T01:12:30.438Z,79.35
2022-10-09T01:22:37.631Z,80.34
2022-10-09T01:32:44.366Z,80.15
2022-10-09T01:42:52.167Z,80.07
2022-10-09T01:52:59.200Z,80.24
2022-10-09T02:03:06.212Z,79.92
2022-10-09T02:13:13.123Z,79.83
2022-10-09T02:23:20.199Z,79.22
2022-10-09T02:33:26.719Z,79.38
2022-10-09T02:43:33.826Z,78.99
2022-10-09T02:53:40.746Z,79.83
2022-10-09T03:03:47.850Z,79.33
2022-10-09T03:13:55.006Z,78.15
2022-10-09T03:24:02.193Z,79.13
2022-10-09T03:34:08.370Z,79.09
2022-10-09T03:44:14.195Z,78.67
2022-10-09T03:54:20.294Z,79.03
2022-10-09T04:04:27.001Z,78.88
2022-10-09T04:14:33.818Z,78.36
2022-10-09T04:24:40.564Z,78.19
2022-10-09T04:34:46.544Z,78.87
2022-10-09T04:44:54.608Z,78.42
2022-10-09T04:55:00.703Z,78.06
2022-10-09T05:05:06.443Z,78.39
2022-10-09T05:15:12.535Z,78.88
2022-10-09T05:25:18.654Z,78.80
2022-10-09T05:35:25.175Z,78.71
2022-10-09T05:45:31.974Z,79.25
2022-10-09T05:55:39.902Z,79.75
2022-10-09T06:05:45.660Z,79.18
2022-10-09T06:15:51.885Z,80.11
2022-10-09T06:25:59.126Z,79.60
2022-10-09T06:36:09.984Z,79.62
2022-10-09T06:46:17.797Z,78.98
2022-10-09T06:56:25.054Z,78.66
2022-10-09T07:06:30.957Z,79.37
2022-10-09T07:16:38.601Z,79.37
2022-10-09T07:26:44.023Z,79.30
2022-10-09T07:36:51.395Z,81.32
2022-10-09T07:46:58.441Z,79.60
2022-10-09T07:57:05.703Z,79.09
2022-10-09T08:07:13.073Z,78.95
2022-10-09T08:17:19.869Z,78.47
2022-10-09T08:27:27.354Z,77.85
2022-10-09T08:37:34.392Z,76.92
2022-10-09T08:47:41.876Z,76.11
2022-10-09T08:57:49.097Z,75.70
2022-10-09T09:07:56.338Z,75.09
2022-10-09T09:18:03.628Z,74.51
2022-10-09T09:28:12.513Z,72.96
2022-10-09T09:38:20.102Z,71.60
2022-10-09T09:48:27.356Z,69.33
2022-10-09T09:58:34.619Z,67.39
2022-10-09T10:08:42.379Z,66.38
2022-10-09T10:18:49.635Z,65.69
2022-10-09T10:28:56.741Z,64.95
2022-10-09T10:39:03.749Z,64.36
2022-10-09T10:49:11.015Z,63.67
2022-10-09T10:59:22.223Z,63.01
2022-10-09T11:09:29.245Z,63.52
2022-10-09T11:19:37.921Z,63.10
2022-10-09T11:29:48.353Z,63.37
2022-10-09T11:39:55.656Z,62.66
2022-10-09T11:50:02.636Z,62.68
2022-10-09T12:00:09.410Z,61.55
2022-10-09T12:10:16.047Z,59.30
2022-10-09T12:20:22.825Z,58.57
2022-10-09T12:30:29.761Z,57.08
2022-10-09T12:40:36.557Z,55.16
2022-10-09T12:50:43.513Z,54.07
2022-10-09T13:00:50.042Z,52.99
2022-10-09T13:10:57.491Z,52.12
2022-10-09T13:21:04.544Z,51.43
2022-10-09T13:31:12.108Z,51.82
2022-10-09T13:41:19.372Z,52.95
2022-10-09T13:51:26.545Z,53.80
2022-10-09T14:01:34.888Z,54.70
2022-10-09T14:11:41.144Z,55.19
2022-10-09T14:21:48.003Z,56.19
2022-10-09T14:31:55.388Z,56.42
2022-10-09T14:42:02.329Z,56.42
2022-10-09T14:52:09.052Z,56.51
2022-10-09T15:02:14.911Z,57.93
2022-10-09T15:12:20.511Z,59.00
2022-10-09T15:22:26.373Z,60.31
2022-10-09T15:32:32.117Z,61.42
2022-10-09T15:42:38.078Z,62.87
2022-10-09T15:52:43.978Z,63.93
2022-10-09T16:02:51.024Z,64.66
2022-10-09T16:12:58.386Z,65.77
2022-10-09T16:23:05.034Z,67.15
2022-10-09T16:33:13.019Z,69.23
2022-10-09T16:43:20.364Z,66.66
2022-10-09T16:53:27.375Z,68.01
2022-10-09T17:03:34.636Z,68.82
2022-10-09T17:13:41.324Z,69.21
2022-10-09T17:23:48.543Z,69.61
2022-10-09T17:33:55.309Z,70.09
2022-10-09T17:44:02.139Z,70.29
2022-10-09T17:54:11.917Z,70.91
2022-10-09T18:04:18.469Z,71.13
2022-10-09T18:14:25.371Z,71.41
2022-10-09T18:24:32.444Z,71.22
2022-10-09T18:34:43.131Z,72.03
2022-10-09T18:44:51.293Z,72.60
2022-10-09T18:54:57.291Z,73.07
2022-10-09T19:05:03.162Z,73.50
2022-10-09T19:15:12.068Z,73.83
2022-10-09T19:25:18.559Z,74.00
2022-10-09T19:35:25.088Z,74.52
2022-10-09T19:45:32.114Z,74.71
2022-10-09T19:55:38.980Z,74.92
2022-10-09T20:05:46.024Z,74.09
2022-10-09T20:15:52.936Z,73.87
2022-10-09T20:25:59.711Z,73.32
2022-10-09T20:36:06.660Z,73.21
2022-10-09T20:46:13.713Z,74.00
2022-10-09T20:56:20.835Z,74.54
2022-10-09T21:06:27.972Z,75.11
2022-10-09T21:16:35.559Z,75.54
2022-10-09T21:26:42.025Z,75.84
2022-10-09T21:37:16.505Z,76.27
2022-10-09T21:47:01.121Z,76.61
2022-10-09T21:57:08.384Z,76.79
2022-10-09T22:07:15.424Z,77.05
2022-10-09T22:17:22.580Z,77.23
2022-10-09T22:27:29.649Z,77.62
2022-10-09T22:37:36.320Z,77.66
2022-10-09T22:47:43.332Z,77.86
2022-10-09T22:57:50.318Z,78.15
2022-10-09T23:07:57.911Z,78.31
2022-10-09T23:18:04.959Z,78.40
2022-10-09T23:28:12.270Z,78.87
2022-10-09T23:38:19.108Z,78.70
2022-10-09T23:48:26.301Z,78.76
2022-10-09T23:58:33.204Z,78.94
